createdAt,value
2022-10-13T00:02:51.766Z,12.50
2022-10-13T00:07:59.783Z,13.23
2022-10-13T00:13:08.224Z,12.23
2022-10-13T00:18:16.860Z,11.47
2022-10-13T00:23:25.436Z,10.43
2022-10-13T00:28:33.459Z,10.53
2022-10-13T00:33:41.412Z,12.13
2022-10-13T00:38:49.374Z,9.87
2022-10-13T00:44:00.374Z,12.10
2022-10-13T00:49:10.227Z,9.77
2022-10-13T00:54:21.020Z,10.47
2022-10-13T00:59:29.628Z,11.43
2022-10-13T01:04:39.417Z,10.07
2022-10-13T01:09:49.557Z,11.57
2022-10-13T01:15:01.947Z,10.80
2022-10-13T01:20:13.519Z,12.17
2022-10-13T01:25:24.587Z,11.80
2022-10-13T01:30:35.571Z,13.20
2022-10-13T01:35:47.857Z,14.03
2022-10-13T01:46:14.687Z,14.60
2022-10-13T01:51:23.881Z,15.27
2022-10-13T01:56:32.759Z,17.97
2022-10-13T02:01:47.984Z,17.37
2022-10-13T02:07:13.281Z,18.40
2022-10-13T02:12:24.433Z,16.40
2022-10-13T02:17:32.307Z,16.80
2022-10-13T02:22:43.200Z,16.17
2022-10-13T02:27:51.173Z,17.23
2022-10-13T02:32:58.994Z,16.93
2022-10-13T02:38:07.017Z,18.60
2022-10-13T02:43:15.087Z,18.00
2022-10-13T02:48:23.146Z,17.17
2022-10-13T02:53:30.978Z,18.27
2022-10-13T02:58:38.959Z,19.43
2022-10-13T03:03:46.757Z,21.87
2022-10-13T03:08:55.141Z,20.20
2022-10-13T03:14:03.099Z,19.40
2022-10-13T03:19:11.226Z,21.53
2022-10-13T03:24:19.008Z,19.67
2022-10-13T03:29:27.037Z,21.40
2022-10-13T03:34:36.011Z,21.77
2022-10-13T03:39:43.952Z,20.33
2022-10-13T03:44:56.146Z,19.23
2022-10-13T03:50:01.385Z,19.17
2022-10-13T03:55:09.992Z,18.17
2022-10-13T04:00:18.580Z,18.43
2022-10-13T04:05:26.515Z,20.10
2022-10-13T04:10:34.435Z,18.57
2022-10-13T04:15:43.767Z,16.77
2022-10-13T04:20:51.688Z,19.30
2022-10-13T04:26:00.321Z,18.83
2022-10-13T04:31:08.211Z,20.33
2022-10-13T04:36:16.478Z,20.50
2022-10-13T04:41:31.009Z,20.57
2022-10-13T04:46:34.278Z,20.37
2022-10-13T04:51:43.615Z,21.10
2022-10-13T04:56:51.569Z,21.03
2022-10-13T05:01:59.460Z,19.87
2022-10-13T05:07:18.083Z,19.20
2022-10-13T05:12:17.435Z,19.80
2022-10-13T05:17:26.609Z,20.17
2022-10-13T05:22:34.466Z,21.33
2022-10-13T05:27:42.257Z,20.47
2022-10-13T05:32:53.901Z,23.00
2022-10-13T05:38:00.273Z,21.27
2022-10-13T05:43:08.193Z,23.73
2022-10-13T05:48:16.184Z,25.37
2022-10-13T05:53:24.862Z,25.23
2022-10-13T05:58:33.958Z,25.47
2022-10-13T06:03:42.343Z,26.90
2022-10-13T06:08:51.332Z,26.70
2022-10-13T06:13:59.171Z,28.87
2022-10-13T06:19:07.311Z,32.93
2022-10-13T06:24:15.329Z,33.07
2022-10-13T06:29:23.283Z,30.40
2022-10-13T06:34:31.379Z,29.50
2022-10-13T06:39:39.361Z,32.37
2022-10-13T06:44:47.254Z,34.37
2022-10-13T06:49:55.316Z,36.07
2022-10-13T06:55:03.521Z,31.07
2022-10-13T07:00:11.995Z,35.63
2022-10-13T07:05:20.149Z,36.93
2022-10-13T07:10:31.923Z,36.97
2022-10-13T07:15:41.315Z,33.40
2022-10-13T07:20:49.209Z,37.17
2022-10-13T07:25:58.158Z,32.97
2022-10-13T07:31:08.461Z,37.80
2022-10-13T07:36:16.529Z,38.27
2022-10-13T07:41:24.610Z,36.57
2022-10-13T07:46:32.479Z,31.50
2022-10-13T07:51:40.590Z,30.23
2022-10-13T07:56:48.538Z,26.80
2022-10-13T08:01:56.570Z,27.17
2022-10-13T08:07:06.470Z,26.33
2022-10-13T08:12:14.900Z,24.03
2022-10-13T08:17:23.711Z,23.27
2022-10-13T08:22:33.370Z,23.10
2022-10-13T08:27:51.152Z,22.20
2022-10-13T08:32:51.912Z,22.23
2022-10-13T08:37:59.945Z,21.30
2022-10-13T08:43:09.170Z,20.70
2022-10-13T08:48:20.182Z,18.40
2022-10-13T08:53:31.515Z,19.30
2022-10-13T08:58:41.340Z,17.50
2022-10-13T09:03:52.820Z,17.00
2022-10-13T09:09:03.632Z,13.90
2022-10-13T09:14:14.126Z,12.53
2022-10-13T09:19:25.648Z,11.07
2022-10-13T09:24:33.689Z,12.57
2022-10-13T09:29:42.926Z,11.53
2022-10-13T09:34:52.257Z,12.10
2022-10-13T09:40:03.477Z,11.23
2022-10-13T09:45:14.831Z,10.73
2022-10-13T09:50:25.660Z,11.63
2022-10-13T09:55:35.552Z,11.13
2022-10-13T10:00:43.591Z,11.57
2022-10-13T10:06:12.319Z,10.77
2022-10-13T10:11:22.992Z,10.80
2022-10-13T10:16:33.950Z,11.20
2022-10-13T10:27:00.063Z,9.53
2022-10-13T10:32:11.407Z,8.37
2022-10-13T10:37:25.192Z,8.83
2022-10-13T10:42:37.898Z,9.27
2022-10-13T10:47:47.480Z,8.80
2022-10-13T10:52:58.424Z,8.23
2022-10-13T11:03:31.487Z,8.83
2022-10-13T11:13:54.585Z,7.27
2022-10-13T11:24:19.589Z,7.57
2022-10-13T11:29:30.887Z,7.67
2022-10-13T11:34:38.760Z,7.63
2022-10-13T11:39:50.966Z,8.60
2022-10-13T11:45:01.751Z,7.70
2022-10-13T11:50:12.848Z,7.13
2022-10-13T11:55:24.901Z,6.60
2022-10-13T12:00:33.632Z,5.47
2022-10-13T12:05:43.368Z,6.20
2022-10-13T12:10:54.974Z,6.73
2022-10-13T12:16:06.408Z,6.00
2022-10-13T12:21:18.191Z,6.93
2022-10-13T12:26:26.752Z,7.17
2022-10-13T12:31:37.882Z,6.40
2022-10-13T12:36:47.362Z,5.77
2022-10-13T12:41:56.117Z,6.27
2022-10-13T12:47:04.528Z,5.90
2022-10-13T12:52:14.860Z,5.73
2022-10-13T12:57:26.396Z,4.97
2022-10-13T13:02:34.250Z,5.70
2022-10-13T13:07:42.695Z,5.43
2022-10-13T13:12:51.084Z,5.63
2022-10-13T13:18:02.627Z,5.13
2022-10-13T13:23:11.436Z,5.40
2022-10-13T13:28:21.503Z,5.67
2022-10-13T13:33:29.802Z,5.50
2022-10-13T13:38:37.826Z,6.20
2022-10-13T13:43:45.834Z,5.57
2022-10-13T13:48:53.817Z,5.77
2022-10-13T13:54:01.666Z,5.27
2022-10-13T13:59:10.318Z,5.73
2022-10-13T14:04:18.782Z,4.50
2022-10-13T14:09:26.725Z,4.33
2022-10-13T14:14:34.682Z,4.60
2022-10-13T14:19:43.184Z,5.10
2022-10-13T14:24:51.159Z,4.00
2022-10-13T14:29:59.545Z,4.43
2022-10-13T14:35:07.712Z,4.20
2022-10-13T14:40:15.638Z,4.53
2022-10-13T14:45:23.580Z,4.70
2022-10-13T14:50:31.624Z,4.50
2022-10-13T14:55:40.359Z,5.00
2022-10-13T15:00:48.493Z,4.50
2022-10-13T15:05:56.386Z,4.40
2022-10-13T15:11:05.792Z,4.83
2022-10-13T15:16:17.845Z,5.17
2022-10-13T15:21:25.867Z,5.00
2022-10-13T15:26:37.605Z,5.47
2022-10-13T15:31:46.752Z,5.03
2022-10-13T15:36:56.001Z,4.93
2022-10-13T15:42:04.724Z,5.87
2022-10-13T15:47:17.091Z,6.00
2022-10-13T15:52:22.741Z,5.97
2022-10-13T15:57:32.500Z,5.67
2022-10-13T16:02:42.118Z,7.00
2022-10-13T16:07:50.134Z,7.37
2022-10-13T16:12:59.208Z,7.93
2022-10-13T16:18:07.419Z,7.30
2022-10-13T16:23:15.474Z,8.37
2022-10-13T16:28:23.414Z,8.43
2022-10-13T16:33:31.316Z,9.07
2022-10-13T16:38:39.818Z,9.27
2022-10-13T16:43:49.069Z,9.53
2022-10-13T16:48:56.965Z,9.77
2022-10-13T16:54:05.587Z,10.43
2022-10-13T16:59:13.488Z,12.30
2022-10-13T17:04:22.389Z,11.97
2022-10-13T17:09:30.492Z,12.30
2022-10-13T17:14:38.810Z,12.47
2022-10-13T17:19:47.298Z,14.23
2022-10-13T17:24:55.768Z,16.70
2022-10-13T17:30:06.102Z,17.20
2022-10-13T17:35:21.541Z,16.10
2022-10-13T17:40:30.615Z,16.40
2022-10-13T17:45:39.645Z,19.90
2022-10-13T17:50:47.632Z,21.10
2022-10-13T17:56:00.343Z,19.60
2022-10-13T18:01:13.748Z,19.07
2022-10-13T18:06:22.507Z,19.67
2022-10-13T18:11:33.962Z,19.00
2022-10-13T18:16:43.439Z,19.60
2022-10-13T18:21:53.250Z,19.47
2022-10-13T18:27:02.131Z,21.03
2022-10-13T18:32:10.855Z,21.13
2022-10-13T18:37:19.340Z,21.43
2022-10-13T18:42:42.298Z,23.73
2022-10-13T18:47:52.373Z,24.40
2022-10-13T18:53:00.897Z,24.70
2022-10-13T18:58:13.477Z,21.30
2022-10-13T19:03:22.865Z,22.63
2022-10-13T19:08:31.774Z,27.50
2022-10-13T19:13:40.125Z,25.27
2022-10-13T19:18:49.014Z,25.20
2022-10-13T19:23:59.946Z,25.37
2022-10-13T19:29:10.131Z,24.93
2022-10-13T19:34:19.239Z,24.97
2022-10-13T19:39:27.837Z,29.27
2022-10-13T19:44:38.596Z,28.67
2022-10-13T19:49:47.763Z,31.90
2022-10-13T19:54:55.837Z,34.67
2022-10-13T20:00:09.506Z,33.47
2022-10-13T20:05:25.296Z,31.97
2022-10-13T20:10:32.038Z,31.97
2022-10-13T20:15:41.747Z,27.63
2022-10-13T20:20:49.846Z,31.10
2022-10-13T20:25:58.405Z,30.10
2022-10-13T20:31:07.086Z,30.93
2022-10-13T20:36:16.816Z,29.77
2022-10-13T20:41:27.711Z,28.37
2022-10-13T20:46:36.054Z,27.50
2022-10-13T20:51:44.068Z,29.70
2022-10-13T20:56:54.068Z,29.30
2022-10-13T21:02:03.224Z,28.67
2022-10-13T21:07:12.505Z,27.23
2022-10-13T21:12:22.587Z,28.30
2022-10-13T21:17:32.064Z,28.77
2022-10-13T21:22:40.607Z,30.20
2022-10-13T21:27:50.070Z,30.60
2022-10-13T21:32:59.677Z,30.63
2022-10-13T21:38:08.607Z,28.83
2022-10-13T21:43:17.441Z,27.47
2022-10-13T21:48:25.613Z,29.27
2022-10-13T21:53:33.606Z,27.60
2022-10-13T21:58:41.936Z,27.40
2022-10-13T22:03:51.399Z,27.53
2022-10-13T22:09:00.063Z,26.30
2022-10-13T22:14:08.188Z,24.73
2022-10-13T22:19:17.451Z,24.70
2022-10-13T22:24:25.494Z,24.93
2022-10-13T22:29:33.798Z,24.53
2022-10-13T22:34:41.689Z,27.20
2022-10-13T22:39:50.162Z,26.57
2022-10-13T22:44:58.220Z,24.27
2022-10-13T22:50:06.472Z,26.17
2022-10-13T22:55:14.709Z,24.27
2022-10-13T23:00:23.413Z,24.07
2022-10-13T23:05:31.404Z,25.60
2022-10-13T23:10:39.354Z,26.33
2022-10-13T23:15:48.754Z,27.90
2022-10-13T23:20:57.258Z,28.60
2022-10-13T23:26:06.332Z,30.40
2022-10-13T23:31:16.610Z,30.13
2022-10-13T23:36:26.478Z,31.70
2022-10-13T23:41:34.772Z,33.13
2022-10-13T23:46:42.628Z,32.70
2022-10-13T23:51:50.802Z,32.90
2022-10-13T23:56:59.431Z,30.00
